createdAt,value
2019-03-30T00:02:16.422Z,4.90
2019-03-30T00:04:47.744Z,5.03
2019-03-30T00:07:19.408Z,4.77
2019-03-30T00:09:50.906Z,4.80
2019-03-30T00:12:23.140Z,5.30
2019-03-30T00:14:54.478Z,4.37
2019-03-30T00:17:25.637Z,4.63
2019-03-30T00:19:56.742Z,5.13
2019-03-30T00:22:28.158Z,5.03
2019-03-30T00:24:59.354Z,5.10
2019-03-30T00:27:30.995Z,4.80
2019-03-30T00:30:03.194Z,4.47
2019-03-30T00:32:34.683Z,6.00
2019-03-30T00:35:06.223Z,4.87
2019-03-30T00:37:37.794Z,5.17
2019-03-30T00:40:08.998Z,5.07
2019-03-30T00:42:42.183Z,5.03
2019-03-30T00:45:13.413Z,5.63
2019-03-30T00:47:44.838Z,5.20
2019-03-30T00:50:17.841Z,5.03
2019-03-30T00:52:49.355Z,5.30
2019-03-30T00:55:20.768Z,5.77
2019-03-30T00:57:51.912Z,5.50
2019-03-30T01:00:23.500Z,4.80
2019-03-30T01:02:55.006Z,5.37
2019-03-30T01:05:26.253Z,4.90
2019-03-30T01:07:57.677Z,5.27
2019-03-30T01:10:28.885Z,5.97
2019-03-30T01:13:00.476Z,5.37
2019-03-30T01:15:31.997Z,5.47
2019-03-30T01:18:03.273Z,6.47
2019-03-30T01:20:34.559Z,5.43
2019-03-30T01:23:06.360Z,5.63
2019-03-30T01:25:37.795Z,5.57
2019-03-30T01:28:09.286Z,5.33
2019-03-30T01:30:40.959Z,6.43
2019-03-30T01:33:12.495Z,5.93
2019-03-30T01:35:44.186Z,5.50
2019-03-30T01:38:15.530Z,5.80
2019-03-30T01:40:47.284Z,5.60
2019-03-30T01:43:18.433Z,5.90
2019-03-30T01:45:49.829Z,5.20
2019-03-30T01:48:21.193Z,5.47
2019-03-30T01:50:52.642Z,6.00
2019-03-30T01:53:23.824Z,5.70
2019-03-30T01:55:55.238Z,6.00
2019-03-30T01:58:26.427Z,5.50
2019-03-30T02:00:58.080Z,5.70
2019-03-30T02:03:29.818Z,5.90
2019-03-30T02:06:01.330Z,5.17
2019-03-30T02:08:32.639Z,5.63
2019-03-30T02:11:03.665Z,5.30
2019-03-30T02:13:35.108Z,5.17
2019-03-30T02:16:06.276Z,5.87
2019-03-30T02:18:37.734Z,5.73
2019-03-30T02:21:09.354Z,5.30
2019-03-30T02:23:41.163Z,5.77
2019-03-30T02:26:13.588Z,5.17
2019-03-30T02:28:44.803Z,5.40
2019-03-30T02:31:16.188Z,5.20
2019-03-30T02:33:47.704Z,5.50
2019-03-30T02:36:18.915Z,6.20
2019-03-30T02:38:50.360Z,6.30
2019-03-30T02:41:21.675Z,5.67
2019-03-30T02:43:52.769Z,5.70
2019-03-30T02:46:23.998Z,5.77
2019-03-30T02:48:55.453Z,5.63
2019-03-30T02:51:26.637Z,5.27
2019-03-30T02:53:58.989Z,5.17
2019-03-30T02:56:30.347Z,5.53
2019-03-30T02:59:01.597Z,5.03
2019-03-30T03:01:33.589Z,6.10
2019-03-30T03:04:04.829Z,5.27
2019-03-30T03:06:36.079Z,5.90
2019-03-30T03:09:09.337Z,5.50
2019-03-30T03:11:41.210Z,5.03
2019-03-30T03:14:12.443Z,5.40
2019-03-30T03:16:44.128Z,5.43
2019-03-30T03:19:15.663Z,6.07
2019-03-30T03:21:47.992Z,5.63
2019-03-30T03:24:19.418Z,5.67
2019-03-30T03:26:50.611Z,5.10
2019-03-30T03:29:21.868Z,5.10
2019-03-30T03:31:53.427Z,5.50
2019-03-30T03:34:25.874Z,4.90
2019-03-30T03:36:57.071Z,4.83
2019-03-30T03:39:28.659Z,6.00
2019-03-30T03:42:00.174Z,5.47
2019-03-30T03:44:31.422Z,5.53
2019-03-30T03:47:02.958Z,4.57
2019-03-30T03:49:34.096Z,5.57
2019-03-30T03:52:06.172Z,5.23
2019-03-30T03:54:37.655Z,5.67
2019-03-30T03:57:11.887Z,5.00
2019-03-30T03:59:43.630Z,5.70
2019-03-30T04:02:17.099Z,5.30
2019-03-30T04:04:50.648Z,5.30
2019-03-30T04:07:23.796Z,4.77
2019-03-30T04:09:57.838Z,4.63
2019-03-30T04:12:30.912Z,5.30
2019-03-30T04:15:03.874Z,4.80
2019-03-30T04:17:35.867Z,4.90
2019-03-30T04:20:07.886Z,5.60
2019-03-30T04:22:39.379Z,5.17
2019-03-30T04:25:10.870Z,5.03
2019-03-30T04:27:44.017Z,5.07
2019-03-30T04:30:15.283Z,5.00
2019-03-30T04:32:46.451Z,4.73
2019-03-30T04:35:17.916Z,5.63
2019-03-30T04:37:49.326Z,4.73
2019-03-30T04:40:20.803Z,4.60
2019-03-30T04:42:52.457Z,5.07
2019-03-30T04:45:23.724Z,4.53
2019-03-30T04:47:55.131Z,5.00
2019-03-30T04:50:26.663Z,5.43
2019-03-30T04:52:58.078Z,4.60
2019-03-30T04:55:29.487Z,5.20
2019-03-30T04:58:00.793Z,5.43
2019-03-30T05:00:32.631Z,5.50
2019-03-30T05:03:05.083Z,5.67
2019-03-30T05:05:36.354Z,4.70
2019-03-30T05:08:07.903Z,5.00
2019-03-30T05:10:39.447Z,4.93
2019-03-30T05:13:10.871Z,4.50
2019-03-30T05:15:42.080Z,5.57
2019-03-30T05:18:14.104Z,5.47
2019-03-30T05:20:45.426Z,4.63
2019-03-30T05:23:16.905Z,4.63
2019-03-30T05:25:48.443Z,5.40
2019-03-30T05:28:19.697Z,4.87
2019-03-30T05:30:51.054Z,4.57
2019-03-30T05:33:22.511Z,4.47
2019-03-30T05:35:53.759Z,5.23
2019-03-30T05:38:25.316Z,5.13
2019-03-30T05:40:57.083Z,5.03
2019-03-30T05:43:28.623Z,5.33
2019-03-30T05:45:59.814Z,4.83
2019-03-30T05:48:30.960Z,5.10
2019-03-30T05:51:02.497Z,5.10
2019-03-30T05:53:33.825Z,5.80
2019-03-30T05:56:05.260Z,4.87
2019-03-30T05:58:36.439Z,4.97
2019-03-30T06:01:07.872Z,4.73
2019-03-30T06:03:39.587Z,5.27
2019-03-30T06:06:11.192Z,4.50
2019-03-30T06:08:42.615Z,5.00
2019-03-30T06:11:14.295Z,5.10
2019-03-30T06:13:45.492Z,5.00
2019-03-30T06:16:16.935Z,4.67
2019-03-30T06:18:48.558Z,4.93
2019-03-30T06:21:19.837Z,4.83
2019-03-30T06:23:51.086Z,5.30
2019-03-30T06:26:23.005Z,5.07
2019-03-30T06:28:54.428Z,4.93
2019-03-30T06:31:25.659Z,5.53
2019-03-30T06:33:56.739Z,4.70
2019-03-30T06:36:28.630Z,5.30
2019-03-30T06:38:59.679Z,4.60
2019-03-30T06:41:31.100Z,5.07
2019-03-30T06:44:02.274Z,5.23
2019-03-30T06:46:33.723Z,4.83
2019-03-30T06:49:05.343Z,4.97
2019-03-30T06:51:36.846Z,4.97
2019-03-30T06:54:08.555Z,5.20
2019-03-30T06:56:39.862Z,4.73
2019-03-30T06:59:11.582Z,5.10
2019-03-30T07:01:44.368Z,4.60
2019-03-30T07:04:16.239Z,3.90
2019-03-30T07:06:48.722Z,4.93
2019-03-30T07:09:22.963Z,4.87
2019-03-30T07:11:57.088Z,5.07
2019-03-30T07:14:31.221Z,4.10
2019-03-30T07:17:04.890Z,4.40
2019-03-30T07:19:39.710Z,4.83
2019-03-30T07:22:10.998Z,4.30
2019-03-30T07:24:42.371Z,4.47
2019-03-30T07:27:13.647Z,4.40
2019-03-30T07:29:45.032Z,4.83
2019-03-30T07:32:16.187Z,4.20
2019-03-30T07:34:47.514Z,4.50
2019-03-30T07:37:19.016Z,4.10
2019-03-30T07:39:50.188Z,4.57
2019-03-30T07:42:21.608Z,3.70
2019-03-30T07:44:52.815Z,4.00
2019-03-30T07:47:24.218Z,4.03
2019-03-30T07:49:55.343Z,4.47
2019-03-30T07:52:27.015Z,4.00
2019-03-30T07:54:58.698Z,3.73
2019-03-30T07:57:30.302Z,4.53
2019-03-30T08:00:01.954Z,4.63
2019-03-30T08:02:33.831Z,4.43
2019-03-30T08:05:05.318Z,4.40
2019-03-30T08:07:37.110Z,4.53
2019-03-30T08:10:08.319Z,4.20
2019-03-30T08:12:39.634Z,4.37
2019-03-30T08:15:11.693Z,4.13
2019-03-30T08:17:43.356Z,4.13
2019-03-30T08:20:15.038Z,4.50
2019-03-30T08:22:46.322Z,3.90
2019-03-30T08:25:17.824Z,4.20
2019-03-30T08:27:49.061Z,4.17
2019-03-30T08:30:21.603Z,4.13
2019-03-30T08:32:53.015Z,4.30
2019-03-30T08:35:24.730Z,3.77
2019-03-30T08:37:56.534Z,4.13
2019-03-30T08:40:28.163Z,3.77
2019-03-30T08:42:59.508Z,4.50
2019-03-30T08:45:30.797Z,3.73
2019-03-30T08:48:02.002Z,4.00
2019-03-30T08:50:34.526Z,4.03
2019-03-30T08:53:05.649Z,3.53
2019-03-30T08:55:37.130Z,4.00
2019-03-30T08:58:09.086Z,4.00
2019-03-30T09:00:43.991Z,3.90
2019-03-30T09:03:15.471Z,4.13
2019-03-30T09:05:46.843Z,3.83
2019-03-30T09:08:18.450Z,3.63
2019-03-30T09:10:51.540Z,4.33
2019-03-30T09:13:23.383Z,3.73
2019-03-30T09:15:55.168Z,3.87
2019-03-30T09:18:26.332Z,3.70
2019-03-30T09:20:57.756Z,3.93
2019-03-30T09:23:29.022Z,3.77
2019-03-30T09:26:00.051Z,4.10
2019-03-30T09:28:31.582Z,4.33
2019-03-30T09:31:03.352Z,3.57
2019-03-30T09:33:34.546Z,4.57
2019-03-30T09:36:05.804Z,3.97
2019-03-30T09:38:37.033Z,4.23
2019-03-30T09:41:08.441Z,4.30
2019-03-30T09:43:39.971Z,4.03
2019-03-30T09:46:11.486Z,3.27
2019-03-30T09:48:43.074Z,4.37
2019-03-30T09:51:15.965Z,4.30
2019-03-30T09:53:47.210Z,3.03
2019-03-30T09:56:18.482Z,4.17
2019-03-30T09:58:49.866Z,3.70
2019-03-30T10:01:20.975Z,3.50
2019-03-30T10:03:52.697Z,3.30
2019-03-30T10:06:33.784Z,3.10
2019-03-30T10:08:58.097Z,3.30
2019-03-30T10:11:29.338Z,3.33
2019-03-30T10:14:00.525Z,3.73
2019-03-30T10:16:31.781Z,3.33
2019-03-30T10:19:04.500Z,3.00
2019-03-30T10:21:35.918Z,3.37
2019-03-30T10:24:07.138Z,3.80
2019-03-30T10:26:38.336Z,3.23
2019-03-30T10:29:09.581Z,3.77
2019-03-30T10:31:41.235Z,3.43
2019-03-30T10:34:12.642Z,2.93
2019-03-30T10:36:43.938Z,3.23
2019-03-30T10:39:18.710Z,3.20
2019-03-30T10:41:50.471Z,2.90
2019-03-30T10:44:22.145Z,3.00
2019-03-30T10:46:53.586Z,2.70
2019-03-30T10:49:24.814Z,3.63
2019-03-30T10:51:55.867Z,3.27
2019-03-30T10:54:27.082Z,3.47
2019-03-30T10:56:58.930Z,2.90
2019-03-30T10:59:30.750Z,3.50
2019-03-30T11:02:05.016Z,3.43
2019-03-30T11:04:37.716Z,3.17
2019-03-30T11:07:09.439Z,3.50
2019-03-30T11:09:41.134Z,3.77
2019-03-30T11:12:12.674Z,4.10
2019-03-30T11:14:44.142Z,4.23
2019-03-30T11:17:19.335Z,3.97
2019-03-30T11:19:50.179Z,3.90
2019-03-30T11:22:21.746Z,3.90
2019-03-30T11:25:06.261Z,4.05
2019-03-30T11:27:26.328Z,5.17
2019-03-30T11:29:57.582Z,4.37
2019-03-30T11:32:29.256Z,5.05
2019-03-30T11:35:00.677Z,5.15
2019-03-30T11:37:32.113Z,4.70
2019-03-30T11:40:03.780Z,4.45
2019-03-30T11:42:35.542Z,5.05
2019-03-30T11:45:07.122Z,4.20
2019-03-30T11:47:38.443Z,4.17
2019-03-30T11:50:10.196Z,4.70
2019-03-30T11:52:41.812Z,4.55
2019-03-30T11:55:21.633Z,4.30
2019-03-30T11:57:48.010Z,4.05
2019-03-30T12:00:19.514Z,3.67
2019-03-30T12:02:50.769Z,4.00
2019-03-30T12:05:22.321Z,3.70
2019-03-30T12:07:54.020Z,3.77
2019-03-30T12:10:25.742Z,3.70
2019-03-30T12:12:56.996Z,3.50
2019-03-30T12:15:28.261Z,3.30
2019-03-30T12:17:59.846Z,3.20
2019-03-30T12:20:31.338Z,4.00
2019-03-30T12:23:03.202Z,4.27
2019-03-30T12:25:35.864Z,3.40
2019-03-30T12:28:11.150Z,3.63
2019-03-30T12:30:42.761Z,3.27
2019-03-30T12:33:14.110Z,3.67
2019-03-30T12:35:49.015Z,3.73
2019-03-30T12:38:20.438Z,3.53
2019-03-30T12:40:54.067Z,3.20
2019-03-30T12:43:25.251Z,3.30
2019-03-30T12:45:57.152Z,2.70
2019-03-30T12:48:28.481Z,3.43
2019-03-30T12:50:59.580Z,3.00
2019-03-30T12:53:30.991Z,3.20
2019-03-30T12:56:02.785Z,3.23
2019-03-30T12:58:33.975Z,3.07
2019-03-30T13:01:05.932Z,2.97
2019-03-30T13:03:37.324Z,3.00
2019-03-30T13:06:08.763Z,2.83
2019-03-30T13:08:40.359Z,2.87
2019-03-30T13:11:12.215Z,3.20
2019-03-30T13:13:43.860Z,3.00
2019-03-30T13:16:15.317Z,3.10
2019-03-30T13:18:47.685Z,3.13
2019-03-30T13:21:19.162Z,2.80
2019-03-30T13:23:50.590Z,2.83
2019-03-30T13:26:23.194Z,2.83
2019-03-30T13:28:55.066Z,2.77
2019-03-30T13:31:26.453Z,3.10
2019-03-30T13:33:57.678Z,2.90
2019-03-30T13:36:42.278Z,3.40
2019-03-30T13:39:13.644Z,2.97
2019-03-30T13:41:44.896Z,3.23
2019-03-30T13:44:16.086Z,3.47
2019-03-30T13:46:47.510Z,3.23
2019-03-30T13:49:18.783Z,2.80
2019-03-30T13:51:50.194Z,3.00
2019-03-30T13:54:22.102Z,3.43
2019-03-30T13:56:53.310Z,3.03
2019-03-30T13:59:24.801Z,3.13
2019-03-30T14:01:56.148Z,2.53
2019-03-30T14:04:27.424Z,2.93
2019-03-30T14:06:59.048Z,3.03
2019-03-30T14:09:30.255Z,2.93
2019-03-30T14:12:01.905Z,2.93
2019-03-30T14:14:33.779Z,3.27
2019-03-30T14:17:05.392Z,3.10
2019-03-30T14:19:36.990Z,3.17
2019-03-30T14:22:08.401Z,3.30
2019-03-30T14:24:39.579Z,3.00
2019-03-30T14:27:11.263Z,2.90
2019-03-30T14:29:43.078Z,2.97
2019-03-30T14:32:14.529Z,3.60
2019-03-30T14:34:45.666Z,3.27
2019-03-30T14:37:17.082Z,3.10
2019-03-30T14:39:48.602Z,3.00
2019-03-30T14:42:20.736Z,2.83
2019-03-30T14:44:52.420Z,3.13
2019-03-30T14:47:23.559Z,3.20
2019-03-30T14:49:55.045Z,3.23
2019-03-30T14:52:26.530Z,3.57
2019-03-30T14:54:57.724Z,2.73
2019-03-30T14:57:29.014Z,3.07
2019-03-30T15:00:00.666Z,3.00
2019-03-30T15:02:32.083Z,3.23
2019-03-30T15:05:03.378Z,3.57
2019-03-30T15:07:34.587Z,3.20
2019-03-30T15:10:07.053Z,2.90
2019-03-30T15:12:38.683Z,3.10
2019-03-30T15:15:10.951Z,3.03
2019-03-30T15:17:42.204Z,3.10
2019-03-30T15:20:14.145Z,3.37
2019-03-30T15:22:45.407Z,3.17
2019-03-30T15:25:16.858Z,3.13
2019-03-30T15:27:49.436Z,2.80
2019-03-30T15:30:20.700Z,2.70
2019-03-30T15:32:52.096Z,2.87
2019-03-30T15:35:23.603Z,2.83
2019-03-30T15:37:55.220Z,3.30
2019-03-30T15:40:26.903Z,2.90
2019-03-30T15:42:58.533Z,2.30
2019-03-30T15:45:29.771Z,3.00
2019-03-30T15:48:01.106Z,3.00
2019-03-30T15:50:33.190Z,2.77
2019-03-30T15:53:05.555Z,2.93
2019-03-30T15:55:37.131Z,2.57
2019-03-30T15:58:08.570Z,2.80
2019-03-30T16:00:39.668Z,2.70
2019-03-30T16:03:10.888Z,2.60
2019-03-30T16:05:42.238Z,2.63
2019-03-30T16:08:13.750Z,3.23
2019-03-30T16:10:44.882Z,2.93
2019-03-30T16:13:16.459Z,2.70
2019-03-30T16:15:47.852Z,3.03
2019-03-30T16:18:20.126Z,2.43
2019-03-30T16:20:52.057Z,3.07
2019-03-30T16:23:23.414Z,2.63
2019-03-30T16:25:54.874Z,2.97
2019-03-30T16:28:27.142Z,3.23
2019-03-30T16:30:58.561Z,3.17
2019-03-30T16:33:29.922Z,3.23
2019-03-30T16:36:02.775Z,3.10
2019-03-30T16:38:34.587Z,3.23
2019-03-30T16:41:05.741Z,3.03
2019-03-30T16:43:37.110Z,2.93
2019-03-30T16:46:08.506Z,3.47
2019-03-30T16:48:39.766Z,3.70
2019-03-30T16:51:11.123Z,3.63
2019-03-30T16:53:42.551Z,3.43
2019-03-30T16:56:13.777Z,3.47
2019-03-30T16:58:45.499Z,3.40
2019-03-30T17:01:16.653Z,3.50
2019-03-30T17:03:47.802Z,3.23
2019-03-30T17:06:20.297Z,3.30
2019-03-30T17:08:51.578Z,3.30
2019-03-30T17:11:22.992Z,3.10
2019-03-30T17:13:54.891Z,3.73
2019-03-30T17:16:26.302Z,3.30
2019-03-30T17:18:57.721Z,3.33
2019-03-30T17:21:28.869Z,3.10
2019-03-30T17:24:03.453Z,3.40
2019-03-30T17:26:35.095Z,2.90
2019-03-30T17:29:06.418Z,3.27
2019-03-30T17:31:38.070Z,3.53
2019-03-30T17:34:09.715Z,3.30
2019-03-30T17:36:41.279Z,3.47
2019-03-30T17:39:13.695Z,3.53
2019-03-30T17:41:45.244Z,3.40
2019-03-30T17:44:16.662Z,3.33
2019-03-30T17:46:48.158Z,3.70
2019-03-30T17:49:20.074Z,3.87
2019-03-30T17:51:53.977Z,4.10
2019-03-30T17:54:24.679Z,3.77
2019-03-30T17:56:56.203Z,4.10
2019-03-30T17:59:27.683Z,3.57
2019-03-30T18:01:59.057Z,3.60
2019-03-30T18:04:30.357Z,3.70
2019-03-30T18:07:01.923Z,4.00
2019-03-30T18:09:33.475Z,4.03
2019-03-30T18:12:04.931Z,4.10
2019-03-30T18:14:36.430Z,4.00
2019-03-30T18:17:08.029Z,3.90
2019-03-30T18:19:39.592Z,4.20
2019-03-30T18:22:11.034Z,4.10
2019-03-30T18:24:42.719Z,4.00
2019-03-30T18:27:14.460Z,4.30
2019-03-30T18:29:46.867Z,4.30
2019-03-30T18:32:18.569Z,4.30
2019-03-30T18:34:50.671Z,4.50
2019-03-30T18:37:22.405Z,4.43
2019-03-30T18:39:53.851Z,3.80
2019-03-30T18:42:25.897Z,4.40
2019-03-30T18:45:00.013Z,4.23
2019-03-30T18:47:31.131Z,4.50
2019-03-30T18:50:03.987Z,4.27
2019-03-30T18:52:36.101Z,4.40
2019-03-30T18:55:08.507Z,4.63
2019-03-30T18:57:40.318Z,4.73
2019-03-30T19:00:15.566Z,4.40
2019-03-30T19:02:47.070Z,4.80
2019-03-30T19:05:18.327Z,4.63
2019-03-30T19:07:49.511Z,4.50
2019-03-30T19:10:20.901Z,4.77
2019-03-30T19:12:53.543Z,4.80
2019-03-30T19:15:25.389Z,4.87
2019-03-30T19:17:56.848Z,4.67
2019-03-30T19:20:28.094Z,5.63
2019-03-30T19:22:59.430Z,5.50
2019-03-30T19:25:31.066Z,5.27
2019-03-30T19:28:02.611Z,5.03
2019-03-30T19:30:33.945Z,5.20
2019-03-30T19:33:05.493Z,5.37
2019-03-30T19:35:36.981Z,4.83
2019-03-30T19:38:10.924Z,4.87
2019-03-30T19:40:41.797Z,5.50
2019-03-30T19:43:13.258Z,5.57
2019-03-30T19:45:44.692Z,5.43
2019-03-30T19:48:16.335Z,5.80
2019-03-30T19:50:47.774Z,5.57
2019-03-30T19:53:19.039Z,5.97
2019-03-30T19:55:50.054Z,6.00
2019-03-30T19:58:21.656Z,6.13
2019-03-30T20:00:54.262Z,6.60
2019-03-30T20:03:26.621Z,6.70
2019-03-30T20:05:58.200Z,6.10
2019-03-30T20:08:29.812Z,5.83
2019-03-30T20:11:01.089Z,6.17
2019-03-30T20:13:32.403Z,6.87
2019-03-30T20:16:03.902Z,6.47
2019-03-30T20:18:36.579Z,6.70
2019-03-30T20:21:08.215Z,6.23
2019-03-30T20:23:39.477Z,6.33
2019-03-30T20:26:10.924Z,6.63
2019-03-30T20:28:42.159Z,6.70
2019-03-30T20:31:13.759Z,6.43
2019-03-30T20:33:45.539Z,6.80
2019-03-30T20:36:16.851Z,6.20
2019-03-30T20:38:47.945Z,6.40
2019-03-30T20:41:19.622Z,5.87
2019-03-30T20:43:50.788Z,5.00
2019-03-30T20:46:22.481Z,4.97
2019-03-30T20:48:54.304Z,4.57
2019-03-30T20:51:26.519Z,3.70
2019-03-30T20:53:58.161Z,2.90
2019-03-30T20:56:29.567Z,2.70
2019-03-30T20:59:00.802Z,2.07
2019-03-30T21:01:32.186Z,2.17
2019-03-30T21:04:03.329Z,1.80
2019-03-30T21:06:34.986Z,1.60
2019-03-30T21:09:08.027Z,1.30
2019-03-30T21:11:39.258Z,1.37
2019-03-30T21:14:10.532Z,1.37
2019-03-30T21:16:42.004Z,1.00
2019-03-30T21:19:13.474Z,1.00
2019-03-30T21:21:44.842Z,1.00
2019-03-30T21:24:16.406Z,0.83
2019-03-30T21:26:48.168Z,0.80
2019-03-30T21:29:19.359Z,0.80
2019-03-30T21:31:51.372Z,0.80
2019-03-30T21:34:24.000Z,0.90
2019-03-30T21:36:55.788Z,0.80
2019-03-30T21:39:27.318Z,0.47
2019-03-30T21:41:58.763Z,0.60
2019-03-30T21:44:29.946Z,0.53
2019-03-30T21:47:01.439Z,0.50
2019-03-30T21:49:32.844Z,0.57
2019-03-30T21:52:04.521Z,0.60
2019-03-30T21:54:36.054Z,0.70
2019-03-30T21:57:07.534Z,0.77
2019-03-30T21:59:38.639Z,0.50
2019-03-30T22:02:10.074Z,0.70
2019-03-30T22:04:41.627Z,0.70
2019-03-30T22:07:13.274Z,0.73
2019-03-30T22:09:44.474Z,0.80
2019-03-30T22:12:15.911Z,0.80
2019-03-30T22:14:47.303Z,0.60
2019-03-30T22:17:20.372Z,0.73
2019-03-30T22:19:51.743Z,0.60
2019-03-30T22:22:23.002Z,0.80
2019-03-30T22:24:54.356Z,0.70
2019-03-30T22:27:25.805Z,0.80
2019-03-30T22:29:57.463Z,0.60
2019-03-30T22:32:29.958Z,0.57
2019-03-30T22:35:02.305Z,0.73
2019-03-30T22:37:33.794Z,0.90
2019-03-30T22:40:05.778Z,0.90
2019-03-30T22:42:37.292Z,0.70
2019-03-30T22:45:09.659Z,0.73
2019-03-30T22:47:41.147Z,0.73
2019-03-30T22:50:12.778Z,0.80
2019-03-30T22:52:44.635Z,0.90
2019-03-30T22:55:15.900Z,0.70
2019-03-30T22:57:47.399Z,0.60
2019-03-30T23:00:39.514Z,0.80
2019-03-30T23:03:13.320Z,0.80
2019-03-30T23:05:44.897Z,0.60
2019-03-30T23:08:16.128Z,0.70
2019-03-30T23:10:47.705Z,0.70
2019-03-30T23:13:19.196Z,0.60
2019-03-30T23:15:50.934Z,0.63
2019-03-30T23:18:22.336Z,0.63
2019-03-30T23:20:54.150Z,0.83
2019-03-30T23:23:25.472Z,0.80
2019-03-30T23:25:57.186Z,0.70
2019-03-30T23:28:28.619Z,0.70
2019-03-30T23:30:59.993Z,0.80
2019-03-30T23:33:31.545Z,0.80
2019-03-30T23:36:03.302Z,0.90
2019-03-30T23:38:35.246Z,0.80
2019-03-30T23:41:06.788Z,0.67
2019-03-30T23:43:38.281Z,0.80
2019-03-30T23:46:09.447Z,0.60
2019-03-30T23:48:40.865Z,0.80
2019-03-30T23:51:12.297Z,0.80
2019-03-30T23:53:43.964Z,0.90
2019-03-30T23:56:23.176Z,0.70
2019-03-30T23:58:54.593Z,0.70
